sensor_id;sensor_type;location;lat;lon;timestamp;P1;durP1;ratioP1;P2;durP2;ratioP2
67554;SDS011;54385;53.516;49.456;2023-08-07T00:01:31;1.70;;;1.20;;
67554;SDS011;54385;53.516;49.456;2023-08-07T00:03:58;1.38;;;1.05;;
67554;SDS011;54385;53.516;49.456;2023-08-07T00:06:24;1.50;;;0.98;;
67554;SDS011;54385;53.516;49.456;2023-08-07T00:08:51;2.50;;;1.52;;
67554;SDS011;54385;53.516;49.456;2023-08-07T00:11:17;1.50;;;1.20;;
67554;SDS011;54385;53.516;49.456;2023-08-07T00:13:44;1.48;;;1.00;;
67554;SDS011;54385;53.516;49.456;2023-08-07T00:16:10;1.38;;;1.08;;
67554;SDS011;54385;53.516;49.456;2023-08-07T00:18:37;1.58;;;1.20;;
67554;SDS011;54385;53.516;49.456;2023-08-07T00:21:03;2.25;;;1.40;;
67554;SDS011;54385;53.516;49.456;2023-08-07T00:23:29;1.23;;;1.00;;
67554;SDS011;54385;53.516;49.456;2023-08-07T00:25:56;2.28;;;1.10;;
67554;SDS011;54385;53.516;49.456;2023-08-07T00:28:22;1.70;;;1.00;;
67554;SDS011;54385;53.516;49.456;2023-08-07T00:30:49;1.88;;;1.10;;
67554;SDS011;54385;53.516;49.456;2023-08-07T00:33:15;1.65;;;1.23;;
67554;SDS011;54385;53.516;49.456;2023-08-07T00:35:41;1.58;;;1.13;;
67554;SDS011;54385;53.516;49.456;2023-08-07T00:38:08;1.60;;;1.30;;
67554;SDS011;54385;53.516;49.456;2023-08-07T00:40:38;1.67;;;1.15;;
67554;SDS011;54385;53.516;49.456;2023-08-07T00:43:05;0.98;;;0.90;;
67554;SDS011;54385;53.516;49.456;2023-08-07T00:45:50;1.10;;;1.00;;
67554;SDS011;54385;53.516;49.456;2023-08-07T00:48:17;1.75;;;1.08;;
67554;SDS011;54385;53.516;49.456;2023-08-07T00:50:44;1.67;;;1.30;;
67554;SDS011;54385;53.516;49.456;2023-08-07T00:53:12;1.60;;;1.10;;
67554;SDS011;54385;53.516;49.456;2023-08-07T00:55:38;1.85;;;1.38;;
67554;SDS011;54385;53.516;49.456;2023-08-07T00:58:05;2.13;;;1.30;;
67554;SDS011;54385;53.516;49.456;2023-08-07T01:00:31;1.55;;;1.30;;
67554;SDS011;54385;53.516;49.456;2023-08-07T01:02:58;1.05;;;0.93;;
67554;SDS011;54385;53.516;49.456;2023-08-07T01:05:26;1.25;;;1.15;;
67554;SDS011;54385;53.516;49.456;2023-08-07T01:07:53;1.67;;;1.33;;
67554;SDS011;54385;53.516;49.456;2023-08-07T01:10:23;1.55;;;1.13;;
67554;SDS011;54385;53.516;49.456;2023-08-07T01:13:08;1.83;;;1.33;;
67554;SDS011;54385;53.516;49.456;2023-08-07T01:15:50;1.67;;;1.23;;
67554;SDS011;54385;53.516;49.456;2023-08-07T01:18:21;1.10;;;0.90;;
67554;SDS011;54385;53.516;49.456;2023-08-07T01:20:49;2.15;;;1.13;;
67554;SDS011;54385;53.516;49.456;2023-08-07T01:23:15;1.30;;;1.13;;
67554;SDS011;54385;53.516;49.456;2023-08-07T01:25:42;1.40;;;1.10;;
67554;SDS011;54385;53.516;49.456;2023-08-07T01:28:17;1.85;;;1.17;;
67554;SDS011;54385;53.516;49.456;2023-08-07T01:30:49;1.48;;;1.17;;
67554;SDS011;54385;53.516;49.456;2023-08-07T01:33:24;1.10;;;0.98;;
67554;SDS011;54385;53.516;49.456;2023-08-07T01:35:58;1.83;;;1.20;;
67554;SDS011;54385;53.516;49.456;2023-08-07T01:38:29;1.50;;;1.20;;
67554;SDS011;54385;53.516;49.456;2023-08-07T01:40:56;1.20;;;1.00;;
67554;SDS011;54385;53.516;49.456;2023-08-07T01:43:23;1.35;;;1.00;;
67554;SDS011;54385;53.516;49.456;2023-08-07T01:45:50;2.65;;;1.20;;
67554;SDS011;54385;53.516;49.456;2023-08-07T01:48:17;1.13;;;1.00;;
67554;SDS011;54385;53.516;49.456;2023-08-07T01:50:43;1.70;;;1.23;;
67554;SDS011;54385;53.516;49.456;2023-08-07T01:53:10;1.50;;;1.10;;
67554;SDS011;54385;53.516;49.456;2023-08-07T01:55:36;1.83;;;0.98;;
67554;SDS011;54385;53.516;49.456;2023-08-07T01:58:03;1.17;;;0.90;;
67554;SDS011;54385;53.516;49.456;2023-08-07T02:00:29;1.23;;;1.00;;
67554;SDS011;54385;53.516;49.456;2023-08-07T02:02:56;2.00;;;1.27;;
67554;SDS011;54385;53.516;49.456;2023-08-07T02:05:22;1.40;;;1.02;;
67554;SDS011;54385;53.516;49.456;2023-08-07T02:07:49;1.42;;;1.20;;
67554;SDS011;54385;53.516;49.456;2023-08-07T02:10:15;0.98;;;0.90;;
67554;SDS011;54385;53.516;49.456;2023-08-07T02:12:42;1.50;;;0.98;;
67554;SDS011;54385;53.516;49.456;2023-08-07T02:15:09;1.58;;;1.08;;
67554;SDS011;54385;53.516;49.456;2023-08-07T02:17:36;1.75;;;1.00;;
67554;SDS011;54385;53.516;49.456;2023-08-07T02:20:06;1.77;;;1.23;;
67554;SDS011;54385;53.516;49.456;2023-08-07T02:22:35;1.20;;;0.85;;
67554;SDS011;54385;53.516;49.456;2023-08-07T02:25:02;1.10;;;0.90;;
67554;SDS011;54385;53.516;49.456;2023-08-07T02:27:31;2.00;;;1.10;;
67554;SDS011;54385;53.516;49.456;2023-08-07T02:29:58;1.67;;;1.23;;
67554;SDS011;54385;53.516;49.456;2023-08-07T02:32:27;1.50;;;1.10;;
67554;SDS011;54385;53.516;49.456;2023-08-07T02:35:20;1.92;;;1.23;;
67554;SDS011;54385;53.516;49.456;2023-08-07T02:37:50;1.10;;;1.00;;
67554;SDS011;54385;53.516;49.456;2023-08-07T02:40:17;1.20;;;1.10;;
67554;SDS011;54385;53.516;49.456;2023-08-07T02:42:45;1.20;;;1.10;;
67554;SDS011;54385;53.516;49.456;2023-08-07T02:45:12;1.50;;;0.90;;
67554;SDS011;54385;53.516;49.456;2023-08-07T02:47:39;0.85;;;0.85;;
67554;SDS011;54385;53.516;49.456;2023-08-07T02:50:09;1.67;;;1.27;;
67554;SDS011;54385;53.516;49.456;2023-08-07T02:52:37;1.20;;;1.00;;
67554;SDS011;54385;53.516;49.456;2023-08-07T02:55:05;1.52;;;1.00;;
67554;SDS011;54385;53.516;49.456;2023-08-07T02:57:32;1.08;;;0.80;;
67554;SDS011;54385;53.516;49.456;2023-08-07T02:59:59;1.30;;;1.00;;
67554;SDS011;54385;53.516;49.456;2023-08-07T03:02:31;1.20;;;1.00;;
67554;SDS011;54385;53.516;49.456;2023-08-07T03:04:58;2.70;;;1.60;;
67554;SDS011;54385;53.516;49.456;2023-08-07T03:07:26;2.28;;;1.65;;
67554;SDS011;54385;53.516;49.456;2023-08-07T03:09:53;3.30;;;2.08;;
67554;SDS011;54385;53.516;49.456;2023-08-07T03:12:23;3.63;;;1.70;;
67554;SDS011;54385;53.516;49.456;2023-08-07T03:14:50;1.90;;;1.45;;
67554;SDS011;54385;53.516;49.456;2023-08-07T03:17:22;2.10;;;1.90;;
67554;SDS011;54385;53.516;49.456;2023-08-07T03:22:18;3.72;;;1.77;;
67554;SDS011;54385;53.516;49.456;2023-08-07T03:24:48;2.65;;;1.80;;
67554;SDS011;54385;53.516;49.456;2023-08-07T03:27:21;3.22;;;1.90;;
67554;SDS011;54385;53.516;49.456;2023-08-07T03:29:51;4.07;;;2.08;;
67554;SDS011;54385;53.516;49.456;2023-08-07T03:32:20;4.72;;;2.28;;
67554;SDS011;54385;53.516;49.456;2023-08-07T03:34:48;6.07;;;2.67;;
67554;SDS011;54385;53.516;49.456;2023-08-07T03:37:21;4.28;;;2.50;;
67554;SDS011;54385;53.516;49.456;2023-08-07T03:39:47;2.83;;;2.00;;
67554;SDS011;54385;53.516;49.456;2023-08-07T03:42:23;6.18;;;2.30;;
67554;SDS011;54385;53.516;49.456;2023-08-07T03:44:53;3.88;;;2.15;;
67554;SDS011;54385;53.516;49.456;2023-08-07T03:47:20;5.82;;;2.42;;
67554;SDS011;54385;53.516;49.456;2023-08-07T03:49:48;2.50;;;2.00;;
67554;SDS011;54385;53.516;49.456;2023-08-07T03:52:19;3.20;;;1.75;;
67554;SDS011;54385;53.516;49.456;2023-08-07T03:54:46;2.17;;;1.98;;
67554;SDS011;54385;53.516;49.456;2023-08-07T03:57:12;4.38;;;2.42;;
67554;SDS011;54385;53.516;49.456;2023-08-07T03:59:42;6.68;;;2.47;;
67554;SDS011;54385;53.516;49.456;2023-08-07T04:02:12;5.55;;;2.25;;
67554;SDS011;54385;53.516;49.456;2023-08-07T04:04:39;5.32;;;2.70;;
67554;SDS011;54385;53.516;49.456;2023-08-07T04:07:06;4.93;;;2.00;;
67554;SDS011;54385;53.516;49.456;2023-08-07T04:09:34;5.05;;;2.45;;
67554;SDS011;54385;53.516;49.456;2023-08-07T04:12:12;6.25;;;2.35;;
67554;SDS011;54385;53.516;49.456;2023-08-07T04:14:53;4.88;;;2.40;;
67554;SDS011;54385;53.516;49.456;2023-08-07T04:17:20;5.90;;;2.50;;
67554;SDS011;54385;53.516;49.456;2023-08-07T04:19:47;29.02;;;9.48;;
67554;SDS011;54385;53.516;49.456;2023-08-07T04:22:14;34.72;;;11.57;;
67554;SDS011;54385;53.516;49.456;2023-08-07T04:24:41;28.92;;;8.68;;
67554;SDS011;54385;53.516;49.456;2023-08-07T04:27:08;37.35;;;12.13;;
67554;SDS011;54385;53.516;49.456;2023-08-07T04:29:35;30.00;;;10.18;;
67554;SDS011;54385;53.516;49.456;2023-08-07T04:32:02;23.55;;;8.20;;
67554;SDS011;54385;53.516;49.456;2023-08-07T04:34:31;22.70;;;7.63;;
67554;SDS011;54385;53.516;49.456;2023-08-07T04:36:58;15.75;;;6.20;;
67554;SDS011;54385;53.516;49.456;2023-08-07T04:42:26;13.73;;;4.65;;
67554;SDS011;54385;53.516;49.456;2023-08-07T04:45:08;11.73;;;3.90;;
67554;SDS011;54385;53.516;49.456;2023-08-07T04:47:35;8.88;;;3.72;;
67554;SDS011;54385;53.516;49.456;2023-08-07T04:50:02;8.43;;;3.75;;
67554;SDS011;54385;53.516;49.456;2023-08-07T04:52:29;8.82;;;4.15;;
67554;SDS011;54385;53.516;49.456;2023-08-07T04:54:59;8.05;;;3.75;;
67554;SDS011;54385;53.516;49.456;2023-08-07T04:57:26;6.90;;;3.50;;
67554;SDS011;54385;53.516;49.456;2023-08-07T04:59:53;9.45;;;3.38;;
67554;SDS011;54385;53.516;49.456;2023-08-07T05:02:20;7.28;;;3.38;;
67554;SDS011;54385;53.516;49.456;2023-08-07T05:04:47;8.57;;;3.38;;
67554;SDS011;54385;53.516;49.456;2023-08-07T05:07:14;7.47;;;3.47;;
67554;SDS011;54385;53.516;49.456;2023-08-07T05:09:45;7.90;;;3.35;;
67554;SDS011;54385;53.516;49.456;2023-08-07T05:12:13;10.52;;;4.00;;
67554;SDS011;54385;53.516;49.456;2023-08-07T05:14:40;5.45;;;3.20;;
67554;SDS011;54385;53.516;49.456;2023-08-07T05:17:07;5.43;;;2.85;;
67554;SDS011;54385;53.516;49.456;2023-08-07T05:19:34;6.57;;;2.63;;
67554;SDS011;54385;53.516;49.456;2023-08-07T05:22:05;4.65;;;2.28;;
67554;SDS011;54385;53.516;49.456;2023-08-07T05:24:35;4.15;;;2.45;;
67554;SDS011;54385;53.516;49.456;2023-08-07T05:27:05;5.85;;;2.72;;
67554;SDS011;54385;53.516;49.456;2023-08-07T05:29:39;5.47;;;2.63;;
67554;SDS011;54385;53.516;49.456;2023-08-07T05:32:30;4.32;;;2.00;;
67554;SDS011;54385;53.516;49.456;2023-08-07T05:35:06;3.40;;;2.08;;
67554;SDS011;54385;53.516;49.456;2023-08-07T05:37:34;5.65;;;2.20;;
67554;SDS011;54385;53.516;49.456;2023-08-07T05:40:10;4.55;;;2.60;;
67554;SDS011;54385;53.516;49.456;2023-08-07T05:42:38;3.65;;;2.38;;
67554;SDS011;54385;53.516;49.456;2023-08-07T05:45:05;5.30;;;2.55;;
67554;SDS011;54385;53.516;49.456;2023-08-07T05:47:35;4.28;;;3.20;;
67554;SDS011;54385;53.516;49.456;2023-08-07T05:50:03;5.13;;;2.28;;
67554;SDS011;54385;53.516;49.456;2023-08-07T05:52:54;3.42;;;2.40;;
67554;SDS011;54385;53.516;49.456;2023-08-07T05:55:21;5.13;;;2.47;;
67554;SDS011;54385;53.516;49.456;2023-08-07T05:57:54;5.57;;;2.30;;
67554;SDS011;54385;53.516;49.456;2023-08-07T06:00:22;3.20;;;2.03;;
67554;SDS011;54385;53.516;49.456;2023-08-07T06:02:49;3.60;;;2.20;;
67554;SDS011;54385;53.516;49.456;2023-08-07T06:05:16;2.83;;;1.92;;
67554;SDS011;54385;53.516;49.456;2023-08-07T06:07:43;3.08;;;1.85;;
67554;SDS011;54385;53.516;49.456;2023-08-07T06:10:10;5.38;;;1.70;;
67554;SDS011;54385;53.516;49.456;2023-08-07T06:12:37;4.13;;;1.65;;
67554;SDS011;54385;53.516;49.456;2023-08-07T06:15:04;2.78;;;1.67;;
67554;SDS011;54385;53.516;49.456;2023-08-07T06:17:31;2.55;;;1.80;;
67554;SDS011;54385;53.516;49.456;2023-08-07T06:19:59;3.50;;;1.60;;
67554;SDS011;54385;53.516;49.456;2023-08-07T06:22:25;2.88;;;1.60;;
67554;SDS011;54385;53.516;49.456;2023-08-07T06:24:52;2.40;;;1.80;;
67554;SDS011;54385;53.516;49.456;2023-08-07T06:27:20;3.28;;;1.50;;
67554;SDS011;54385;53.516;49.456;2023-08-07T06:29:48;3.50;;;1.42;;
67554;SDS011;54385;53.516;49.456;2023-08-07T06:32:18;2.70;;;1.48;;
67554;SDS011;54385;53.516;49.456;2023-08-07T06:34:45;2.35;;;1.40;;
67554;SDS011;54385;53.516;49.456;2023-08-07T06:37:13;3.60;;;1.67;;
67554;SDS011;54385;53.516;49.456;2023-08-07T06:39:41;2.50;;;1.45;;
67554;SDS011;54385;53.516;49.456;2023-08-07T06:42:20;5.60;;;2.20;;
67554;SDS011;54385;53.516;49.456;2023-08-07T06:44:47;3.97;;;1.83;;
67554;SDS011;54385;53.516;49.456;2023-08-07T06:47:14;4.07;;;1.85;;
67554;SDS011;54385;53.516;49.456;2023-08-07T06:49:41;3.58;;;1.67;;
67554;SDS011;54385;53.516;49.456;2023-08-07T06:52:09;1.65;;;1.50;;
67554;SDS011;54385;53.516;49.456;2023-08-07T06:54:41;2.45;;;1.65;;
67554;SDS011;54385;53.516;49.456;2023-08-07T06:57:10;3.42;;;1.70;;
67554;SDS011;54385;53.516;49.456;2023-08-07T06:59:38;3.00;;;1.48;;
67554;SDS011;54385;53.516;49.456;2023-08-07T07:02:07;6.28;;;1.90;;
67554;SDS011;54385;53.516;49.456;2023-08-07T07:04:42;3.97;;;1.55;;
67554;SDS011;54385;53.516;49.456;2023-08-07T07:07:09;1.80;;;1.60;;
67554;SDS011;54385;53.516;49.456;2023-08-07T07:09:35;2.40;;;1.50;;
67554;SDS011;54385;53.516;49.456;2023-08-07T07:12:03;3.17;;;1.60;;
67554;SDS011;54385;53.516;49.456;2023-08-07T07:14:32;2.30;;;1.42;;
67554;SDS011;54385;53.516;49.456;2023-08-07T07:17:02;2.20;;;1.60;;
67554;SDS011;54385;53.516;49.456;2023-08-07T07:19:29;3.28;;;1.42;;
67554;SDS011;54385;53.516;49.456;2023-08-07T07:21:56;3.67;;;1.40;;
67554;SDS011;54385;53.516;49.456;2023-08-07T07:24:23;2.10;;;1.35;;
67554;SDS011;54385;53.516;49.456;2023-08-07T07:26:50;3.90;;;1.60;;
67554;SDS011;54385;53.516;49.456;2023-08-07T07:29:17;2.67;;;1.65;;
67554;SDS011;54385;53.516;49.456;2023-08-07T07:31:44;2.17;;;1.50;;
67554;SDS011;54385;53.516;49.456;2023-08-07T07:34:13;2.33;;;1.52;;
67554;SDS011;54385;53.516;49.456;2023-08-07T07:36:41;3.25;;;1.70;;
67554;SDS011;54385;53.516;49.456;2023-08-07T07:39:08;2.53;;;1.70;;
67554;SDS011;54385;53.516;49.456;2023-08-07T07:41:36;4.18;;;1.67;;
67554;SDS011;54385;53.516;49.456;2023-08-07T07:44:03;2.00;;;1.52;;
67554;SDS011;54385;53.516;49.456;2023-08-07T07:46:30;3.70;;;1.42;;
67554;SDS011;54385;53.516;49.456;2023-08-07T07:48:58;1.60;;;1.25;;
67554;SDS011;54385;53.516;49.456;2023-08-07T07:51:26;1.60;;;1.35;;
67554;SDS011;54385;53.516;49.456;2023-08-07T07:53:55;2.35;;;1.80;;
67554;SDS011;54385;53.516;49.456;2023-08-07T07:56:22;3.97;;;1.70;;
67554;SDS011;54385;53.516;49.456;2023-08-07T07:58:48;2.80;;;1.70;;
67554;SDS011;54385;53.516;49.456;2023-08-07T08:01:18;1.77;;;1.40;;
67554;SDS011;54385;53.516;49.456;2023-08-07T08:03:45;2.42;;;1.48;;
67554;SDS011;54385;53.516;49.456;2023-08-07T08:06:13;3.67;;;1.77;;
67554;SDS011;54385;53.516;49.456;2023-08-07T08:08:39;3.38;;;1.40;;
67554;SDS011;54385;53.516;49.456;2023-08-07T08:11:10;2.88;;;1.42;;
67554;SDS011;54385;53.516;49.456;2023-08-07T08:13:36;2.30;;;1.30;;
67554;SDS011;54385;53.516;49.456;2023-08-07T08:16:07;1.85;;;1.33;;
67554;SDS011;54385;53.516;49.456;2023-08-07T08:18:33;1.90;;;1.50;;
67554;SDS011;54385;53.516;49.456;2023-08-07T08:21:00;2.03;;;1.33;;
67554;SDS011;54385;53.516;49.456;2023-08-07T08:23:27;1.80;;;1.40;;
67554;SDS011;54385;53.516;49.456;2023-08-07T08:25:54;3.30;;;1.45;;
67554;SDS011;54385;53.516;49.456;2023-08-07T08:28:21;3.13;;;1.38;;
67554;SDS011;54385;53.516;49.456;2023-08-07T08:30:48;2.55;;;1.30;;
67554;SDS011;54385;53.516;49.456;2023-08-07T08:33:18;1.65;;;1.20;;
67554;SDS011;54385;53.516;49.456;2023-08-07T08:35:45;1.63;;;1.25;;
67554;SDS011;54385;53.516;49.456;2023-08-07T08:38:12;2.28;;;1.42;;
67554;SDS011;54385;53.516;49.456;2023-08-07T08:40:39;1.30;;;1.20;;
67554;SDS011;54385;53.516;49.456;2023-08-07T08:43:06;1.50;;;1.27;;
67554;SDS011;54385;53.516;49.456;2023-08-07T08:45:36;3.28;;;1.50;;
67554;SDS011;54385;53.516;49.456;2023-08-07T08:48:04;1.77;;;1.42;;
67554;SDS011;54385;53.516;49.456;2023-08-07T08:50:34;1.58;;;1.10;;
67554;SDS011;54385;53.516;49.456;2023-08-07T08:53:02;1.55;;;1.30;;
67554;SDS011;54385;53.516;49.456;2023-08-07T08:55:29;1.98;;;1.10;;
67554;SDS011;54385;53.516;49.456;2023-08-07T08:58:00;2.95;;;1.48;;
67554;SDS011;54385;53.516;49.456;2023-08-07T09:00:34;1.58;;;1.20;;
67554;SDS011;54385;53.516;49.456;2023-08-07T09:03:04;1.63;;;1.33;;
67554;SDS011;54385;53.516;49.456;2023-08-07T09:05:31;2.95;;;1.30;;
67554;SDS011;54385;53.516;49.456;2023-08-07T09:07:58;2.42;;;1.55;;
67554;SDS011;54385;53.516;49.456;2023-08-07T09:10:30;3.70;;;1.35;;
67554;SDS011;54385;53.516;49.456;2023-08-07T09:13:02;1.40;;;1.20;;
67554;SDS011;54385;53.516;49.456;2023-08-07T09:15:31;1.83;;;1.17;;
67554;SDS011;54385;53.516;49.456;2023-08-07T09:17:59;1.67;;;1.30;;
67554;SDS011;54385;53.516;49.456;2023-08-07T09:20:27;2.78;;;1.30;;
67554;SDS011;54385;53.516;49.456;2023-08-07T09:22:54;1.63;;;1.20;;
67554;SDS011;54385;53.516;49.456;2023-08-07T09:25:28;2.20;;;1.23;;
67554;SDS011;54385;53.516;49.456;2023-08-07T09:28:05;1.48;;;1.30;;
67554;SDS011;54385;53.516;49.456;2023-08-07T09:30:34;1.65;;;1.27;;
67554;SDS011;54385;53.516;49.456;2023-08-07T09:33:05;2.05;;;1.20;;
67554;SDS011;54385;53.516;49.456;2023-08-07T09:35:36;1.63;;;1.30;;
67554;SDS011;54385;53.516;49.456;2023-08-07T09:38:07;1.23;;;1.10;;
67554;SDS011;54385;53.516;49.456;2023-08-07T09:41:00;4.43;;;1.25;;
67554;SDS011;54385;53.516;49.456;2023-08-07T09:43:36;3.05;;;1.20;;
67554;SDS011;54385;53.516;49.456;2023-08-07T09:46:03;2.60;;;1.15;;
67554;SDS011;54385;53.516;49.456;2023-08-07T09:48:43;1.40;;;1.15;;
67554;SDS011;54385;53.516;49.456;2023-08-07T09:51:14;2.03;;;1.30;;
67554;SDS011;54385;53.516;49.456;2023-08-07T09:53:48;1.90;;;1.00;;
67554;SDS011;54385;53.516;49.456;2023-08-07T09:56:16;1.35;;;1.05;;
67554;SDS011;54385;53.516;49.456;2023-08-07T09:58:46;2.15;;;1.10;;
67554;SDS011;54385;53.516;49.456;2023-08-07T10:01:15;2.75;;;1.10;;
67554;SDS011;54385;53.516;49.456;2023-08-07T10:03:42;1.20;;;1.00;;
67554;SDS011;54385;53.516;49.456;2023-08-07T10:06:10;2.15;;;1.30;;
67554;SDS011;54385;53.516;49.456;2023-08-07T10:08:38;1.33;;;1.00;;
67554;SDS011;54385;53.516;49.456;2023-08-07T10:11:07;1.77;;;1.10;;
67554;SDS011;54385;53.516;49.456;2023-08-07T10:13:37;1.50;;;1.10;;
67554;SDS011;54385;53.516;49.456;2023-08-07T10:16:41;2.42;;;1.30;;
67554;SDS011;54385;53.516;49.456;2023-08-07T10:19:16;2.30;;;1.25;;
67554;SDS011;54385;53.516;49.456;2023-08-07T10:21:43;1.58;;;1.40;;
67554;SDS011;54385;53.516;49.456;2023-08-07T10:24:14;2.30;;;1.02;;
67554;SDS011;54385;53.516;49.456;2023-08-07T10:26:51;1.95;;;1.13;;
67554;SDS011;54385;53.516;49.456;2023-08-07T10:29:19;3.47;;;1.20;;
67554;SDS011;54385;53.516;49.456;2023-08-07T10:31:51;2.28;;;1.02;;
67554;SDS011;54385;53.516;49.456;2023-08-07T10:34:18;1.92;;;1.27;;
67554;SDS011;54385;53.516;49.456;2023-08-07T10:36:45;2.30;;;1.35;;
67554;SDS011;54385;53.516;49.456;2023-08-07T10:39:12;1.92;;;1.10;;
67554;SDS011;54385;53.516;49.456;2023-08-07T10:41:45;1.90;;;1.02;;
67554;SDS011;54385;53.516;49.456;2023-08-07T10:44:20;1.20;;;1.10;;
67554;SDS011;54385;53.516;49.456;2023-08-07T10:46:48;3.50;;;1.30;;
67554;SDS011;54385;53.516;49.456;2023-08-07T10:49:38;1.30;;;1.20;;
67554;SDS011;54385;53.516;49.456;2023-08-07T10:52:09;1.67;;;1.15;;
67554;SDS011;54385;53.516;49.456;2023-08-07T10:54:46;1.50;;;1.30;;
67554;SDS011;54385;53.516;49.456;2023-08-07T11:02:30;3.03;;;1.38;;
67554;SDS011;54385;53.516;49.456;2023-08-07T11:04:59;2.65;;;1.27;;
67554;SDS011;54385;53.516;49.456;2023-08-07T11:07:26;3.13;;;1.17;;
67554;SDS011;54385;53.516;49.456;2023-08-07T11:09:57;2.05;;;1.02;;
67554;SDS011;54385;53.516;49.456;2023-08-07T11:12:25;1.75;;;1.10;;
67554;SDS011;54385;53.516;49.456;2023-08-07T11:14:52;2.03;;;1.25;;
67554;SDS011;54385;53.516;49.456;2023-08-07T11:17:25;1.88;;;1.15;;
67554;SDS011;54385;53.516;49.456;2023-08-07T11:19:53;2.53;;;0.90;;
67554;SDS011;54385;53.516;49.456;2023-08-07T11:22:21;2.58;;;1.20;;
67554;SDS011;54385;53.516;49.456;2023-08-07T11:24:48;1.13;;;1.00;;
67554;SDS011;54385;53.516;49.456;2023-08-07T11:27:16;1.27;;;1.05;;
67554;SDS011;54385;53.516;49.456;2023-08-07T11:29:47;2.88;;;1.30;;
67554;SDS011;54385;53.516;49.456;2023-08-07T11:34:46;2.05;;;1.20;;
67554;SDS011;54385;53.516;49.456;2023-08-07T11:37:19;1.60;;;1.00;;
67554;SDS011;54385;53.516;49.456;2023-08-07T11:39:48;3.35;;;1.10;;
67554;SDS011;54385;53.516;49.456;2023-08-07T11:42:14;2.45;;;1.15;;
67554;SDS011;54385;53.516;49.456;2023-08-07T11:44:41;2.10;;;1.10;;
67554;SDS011;54385;53.516;49.456;2023-08-07T11:47:08;2.28;;;1.20;;
67554;SDS011;54385;53.516;49.456;2023-08-07T11:49:36;1.88;;;1.10;;
67554;SDS011;54385;53.516;49.456;2023-08-07T11:52:03;1.10;;;1.00;;
67554;SDS011;54385;53.516;49.456;2023-08-07T11:54:29;1.75;;;1.00;;
67554;SDS011;54385;53.516;49.456;2023-08-07T11:56:56;1.90;;;1.17;;
67554;SDS011;54385;53.516;49.456;2023-08-07T11:59:23;1.95;;;1.17;;
67554;SDS011;54385;53.516;49.456;2023-08-07T12:01:50;2.22;;;1.20;;
67554;SDS011;54385;53.516;49.456;2023-08-07T12:04:17;2.15;;;1.02;;
67554;SDS011;54385;53.516;49.456;2023-08-07T12:06:56;1.65;;;1.10;;
67554;SDS011;54385;53.516;49.456;2023-08-07T12:09:22;1.15;;;0.90;;
67554;SDS011;54385;53.516;49.456;2023-08-07T12:11:49;1.98;;;1.00;;
67554;SDS011;54385;53.516;49.456;2023-08-07T12:14:15;1.50;;;0.95;;
67554;SDS011;54385;53.516;49.456;2023-08-07T12:16:46;1.20;;;0.95;;
67554;SDS011;54385;53.516;49.456;2023-08-07T12:19:14;1.65;;;0.90;;
67554;SDS011;54385;53.516;49.456;2023-08-07T12:21:42;1.63;;;0.90;;
67554;SDS011;54385;53.516;49.456;2023-08-07T12:24:10;1.15;;;0.80;;
67554;SDS011;54385;53.516;49.456;2023-08-07T12:26:39;1.63;;;0.80;;
67554;SDS011;54385;53.516;49.456;2023-08-07T12:29:05;1.58;;;1.08;;
67554;SDS011;54385;53.516;49.456;2023-08-07T12:31:32;1.17;;;0.80;;
67554;SDS011;54385;53.516;49.456;2023-08-07T12:33:58;1.00;;;0.70;;
67554;SDS011;54385;53.516;49.456;2023-08-07T12:36:25;2.13;;;0.90;;
67554;SDS011;54385;53.516;49.456;2023-08-07T12:38:52;0.80;;;0.75;;
67554;SDS011;54385;53.516;49.456;2023-08-07T12:41:18;1.15;;;0.93;;
67554;SDS011;54385;53.516;49.456;2023-08-07T12:43:45;1.27;;;0.82;;
67554;SDS011;54385;53.516;49.456;2023-08-07T12:46:12;1.30;;;0.98;;
67554;SDS011;54385;53.516;49.456;2023-08-07T12:48:38;1.00;;;0.80;;
67554;SDS011;54385;53.516;49.456;2023-08-07T12:51:05;1.35;;;0.70;;
67554;SDS011;54385;53.516;49.456;2023-08-07T12:53:31;1.65;;;0.80;;
67554;SDS011;54385;53.516;49.456;2023-08-07T12:55:58;1.10;;;0.90;;
67554;SDS011;54385;53.516;49.456;2023-08-07T12:58:24;1.67;;;1.02;;
67554;SDS011;54385;53.516;49.456;2023-08-07T13:00:53;0.90;;;0.60;;
67554;SDS011;54385;53.516;49.456;2023-08-07T13:03:20;1.05;;;0.77;;
67554;SDS011;54385;53.516;49.456;2023-08-07T13:05:46;2.90;;;0.90;;
67554;SDS011;54385;53.516;49.456;2023-08-07T13:08:13;1.05;;;0.82;;
67554;SDS011;54385;53.516;49.456;2023-08-07T13:10:40;1.40;;;0.90;;
67554;SDS011;54385;53.516;49.456;2023-08-07T13:13:06;1.27;;;0.77;;
67554;SDS011;54385;53.516;49.456;2023-08-07T13:15:32;0.82;;;0.70;;
67554;SDS011;54385;53.516;49.456;2023-08-07T13:17:59;1.17;;;0.73;;
67554;SDS011;54385;53.516;49.456;2023-08-07T13:20:26;1.52;;;0.70;;
67554;SDS011;54385;53.516;49.456;2023-08-07T13:22:52;1.15;;;0.75;;
67554;SDS011;54385;53.516;49.456;2023-08-07T13:25:19;1.00;;;0.75;;
67554;SDS011;54385;53.516;49.456;2023-08-07T13:27:46;0.60;;;0.60;;
67554;SDS011;54385;53.516;49.456;2023-08-07T13:30:14;0.60;;;0.52;;
67554;SDS011;54385;53.516;49.456;2023-08-07T13:32:40;1.20;;;0.80;;
67554;SDS011;54385;53.516;49.456;2023-08-07T13:35:07;0.60;;;0.60;;
67554;SDS011;54385;53.516;49.456;2023-08-07T13:37:34;0.70;;;0.70;;
67554;SDS011;54385;53.516;49.456;2023-08-07T13:40:04;0.70;;;0.70;;
67554;SDS011;54385;53.516;49.456;2023-08-07T13:42:32;1.95;;;0.82;;
67554;SDS011;54385;53.516;49.456;2023-08-07T13:45:02;0.85;;;0.75;;
67554;SDS011;54385;53.516;49.456;2023-08-07T13:47:31;1.05;;;0.60;;
67554;SDS011;54385;53.516;49.456;2023-08-07T13:49:58;0.77;;;0.63;;
67554;SDS011;54385;53.516;49.456;2023-08-07T13:52:25;0.70;;;0.70;;
67554;SDS011;54385;53.516;49.456;2023-08-07T13:54:52;1.00;;;0.90;;
67554;SDS011;54385;53.516;49.456;2023-08-07T13:57:18;0.63;;;0.57;;
67554;SDS011;54385;53.516;49.456;2023-08-07T13:59:45;0.70;;;0.50;;
67554;SDS011;54385;53.516;49.456;2023-08-07T14:02:11;1.00;;;0.60;;
67554;SDS011;54385;53.516;49.456;2023-08-07T14:04:38;0.82;;;0.63;;
67554;SDS011;54385;53.516;49.456;2023-08-07T14:07:04;0.85;;;0.60;;
67554;SDS011;54385;53.516;49.456;2023-08-07T14:09:32;1.25;;;0.80;;
67554;SDS011;54385;53.516;49.456;2023-08-07T14:11:58;0.95;;;0.70;;
67554;SDS011;54385;53.516;49.456;2023-08-07T14:14:27;0.90;;;0.70;;
67554;SDS011;54385;53.516;49.456;2023-08-07T14:17:05;0.80;;;0.60;;
67554;SDS011;54385;53.516;49.456;2023-08-07T14:20:02;0.80;;;0.70;;
67554;SDS011;54385;53.516;49.456;2023-08-07T14:22:47;0.63;;;0.50;;
67554;SDS011;54385;53.516;49.456;2023-08-07T14:25:24;2.47;;;1.08;;
67554;SDS011;54385;53.516;49.456;2023-08-07T14:27:50;0.70;;;0.70;;
67554;SDS011;54385;53.516;49.456;2023-08-07T14:30:17;1.00;;;0.70;;
67554;SDS011;54385;53.516;49.456;2023-08-07T14:32:43;0.70;;;0.65;;
67554;SDS011;54385;53.516;49.456;2023-08-07T14:35:13;0.82;;;0.70;;
67554;SDS011;54385;53.516;49.456;2023-08-07T14:37:40;0.85;;;0.75;;
67554;SDS011;54385;53.516;49.456;2023-08-07T14:40:06;0.77;;;0.70;;
67554;SDS011;54385;53.516;49.456;2023-08-07T14:42:33;0.90;;;0.80;;
67554;SDS011;54385;53.516;49.456;2023-08-07T14:45:00;1.05;;;0.95;;
67554;SDS011;54385;53.516;49.456;2023-08-07T14:47:26;1.42;;;0.70;;
67554;SDS011;54385;53.516;49.456;2023-08-07T14:49:53;0.88;;;0.68;;
67554;SDS011;54385;53.516;49.456;2023-08-07T14:52:20;1.08;;;0.80;;
67554;SDS011;54385;53.516;49.456;2023-08-07T14:54:50;2.05;;;1.00;;
67554;SDS011;54385;53.516;49.456;2023-08-07T14:57:16;1.08;;;0.90;;